Time;durP1;ratioP1;P1;durP2;ratioP2;P2;SDS_P1;SDS_P2;PMS_P1;PMS_P2;Temp;Humidity;BMP_temperature;BMP_pressure;BME280_temperature;BME280_humidity;BME280_pressure;Samples;Min_cycle;Max_cycle;Signal;HPM_P1;HPM_P2
2023/02/09 00:02:21;;;;;;;42.87;26.63;;;-3.60;99.90;;;-141.84;77.09;18726.69;5029581;28;20269;-61
2023/02/09 00:04:49;;;;;;;45.03;24.50;;;-3.70;99.90;;;-141.84;76.97;18744.97;5029055;28;20236;-62
2023/02/09 00:07:17;;;;;;;42.07;24.13;;;-3.70;99.90;;;-141.84;77.39;18742.94;5029287;28;20228;-61
2023/02/09 00:09:45;;;;;;;42.17;25.50;;;-3.70;99.90;;;-141.84;77.42;18759.19;5028927;28;20229;-62
2023/02/09 00:15:00;;;;;;;43.70;25.47;;;-3.70;99.90;;;-141.84;77.76;18728.72;5028797;28;20196;-61
2023/02/09 00:17:29;;;;;;;42.50;23.97;;;-3.80;99.90;;;-141.84;78.14;18749.03;5029402;28;20197;-61
2023/02/09 00:19:57;;;;;;;42.17;24.50;;;-3.80;99.90;;;-141.84;78.11;18744.97;5028852;28;20240;-60
2023/02/09 00:22:25;;;;;;;43.87;24.77;;;-3.90;99.90;;;-141.84;78.11;18749.03;5028934;28;20225;-62
2023/02/09 00:24:53;;;;;;;46.83;25.43;;;-3.80;99.90;;;-141.84;78.23;18726.69;5038599;28;20231;-60
2023/02/09 00:27:24;;;;;;;45.23;25.53;;;-3.90;99.90;;;-141.84;78.50;18704.31;5049222;28;20238;-61
2023/02/09 00:29:52;;;;;;;41.70;24.37;;;-3.80;99.90;;;-141.84;77.88;18730.75;5048660;28;20266;-61
2023/02/09 00:32:22;;;;;;;45.23;25.27;;;-3.80;99.90;;;-141.84;78.11;18769.34;5049426;28;20200;-61
2023/02/09 00:34:50;;;;;;;42.20;24.87;;;-3.80;99.90;;;-141.84;78.44;18736.84;5048711;28;20231;-61
2023/02/09 00:37:18;;;;;;;46.87;25.53;;;-3.90;99.90;;;-141.84;78.42;18726.69;5048928;28;20319;-62
2023/02/09 00:39:46;;;;;;;44.70;25.53;;;-3.80;99.90;;;-141.84;78.49;18740.91;5048867;28;20275;-61
2023/02/09 00:42:14;;;;;;;39.17;24.77;;;-3.90;99.90;;;-141.84;78.64;18716.53;5048783;28;20239;-60
2023/02/09 00:44:42;;;;;;;39.60;23.67;;;-3.90;99.90;;;-141.84;78.84;18720.59;5049138;28;20579;-61
2023/02/09 00:47:10;;;;;;;40.97;24.83;;;-3.90;99.90;;;-141.84;78.97;18718.56;5048764;28;20228;-62
2023/02/09 00:49:40;;;;;;;44.60;24.87;;;-4.00;99.90;;;-141.84;79.29;18698.22;5048537;28;20236;-62
2023/02/09 00:52:08;;;;;;;41.80;25.40;;;-4.00;99.90;;;-141.84;79.18;18759.19;5049045;28;20263;-61
2023/02/09 00:54:37;;;;;;;43.20;23.93;;;-4.00;99.90;;;-141.84;79.03;18724.66;5048564;28;20232;-62
2023/02/09 00:57:05;;;;;;;42.77;24.70;;;-4.00;99.90;;;-141.84;79.10;18708.41;5052650;28;20235;-62
2023/02/09 00:59:35;;;;;;;42.27;24.33;;;-4.00;99.90;;;-141.84;79.26;18696.19;5053088;28;20207;-62
2023/02/09 01:02:03;;;;;;;41.33;25.43;;;-4.10;99.90;;;-141.84;79.40;18700.25;5052711;28;20290;-62
2023/02/09 01:04:31;;;;;;;45.27;25.07;;;-4.10;99.90;;;-141.84;79.54;18718.56;5052553;28;20227;-61
2023/02/09 01:07:01;;;;;;;45.30;25.73;;;-4.10;99.90;;;-141.84;79.41;18728.72;5052688;28;20237;-62
2023/02/09 01:09:29;;;;;;;45.43;25.20;;;-4.10;99.90;;;-141.84;79.42;18734.81;5052540;28;20635;-60
2023/02/09 01:11:57;;;;;;;43.43;25.10;;;-4.10;99.90;;;-141.84;79.20;18749.03;5053030;28;20207;-61
2023/02/09 01:14:25;;;;;;;43.80;25.60;;;-4.10;99.90;;;-141.84;79.31;18736.84;5052850;28;20208;-60
2023/02/09 01:16:54;;;;;;;43.20;25.40;;;-4.10;99.90;;;-141.84;79.15;18700.25;5051965;28;20238;-61
2023/02/09 01:19:22;;;;;;;44.03;25.80;;;-4.20;99.90;;;-141.84;79.33;18716.53;5052195;28;20231;-61
2023/02/09 01:21:50;;;;;;;42.27;24.97;;;-4.20;99.90;;;-141.84;78.91;18700.25;5052072;28;20236;-61
2023/02/09 01:24:20;;;;;;;45.27;26.00;;;-4.20;99.90;;;-141.84;78.65;18716.53;5052036;28;20493;-60
2023/02/09 01:26:48;;;;;;;43.77;25.53;;;-4.10;99.90;;;-141.84;78.50;18679.94;5051781;28;20580;-60
2023/02/09 01:29:19;;;;;;;42.70;24.97;;;-4.10;99.90;;;-141.84;78.07;18700.25;5052504;28;20220;-60
2023/02/09 01:31:48;;;;;;;47.23;25.57;;;-4.00;99.90;;;-141.84;78.22;18722.63;5051802;28;20222;-60
2023/02/09 01:34:18;;;;;;;43.80;26.23;;;-4.00;99.90;;;-141.84;78.29;18714.50;5051950;28;20237;-61
2023/02/09 01:36:47;;;;;;;48.13;26.40;;;-4.10;99.90;;;-141.84;77.98;18755.13;5051894;28;20222;-60
2023/02/09 01:39:15;;;;;;;43.80;24.57;;;-4.00;99.90;;;-141.84;77.74;18712.47;5051844;28;20275;-60
2023/02/09 01:41:45;;;;;;;43.40;24.93;;;-3.90;99.90;;;-141.84;77.91;18720.59;5051856;28;20200;-59
2023/02/09 01:45:09;;;;;;;45.00;25.37;;;-4.00;99.90;;;-141.84;77.82;18700.25;5052178;28;20212;-61
2023/02/09 01:47:46;;;;;;;44.47;25.10;;;-4.00;99.90;;;-141.84;77.81;18742.94;5052432;28;20215;-60
2023/02/09 01:50:16;;;;;;;42.57;24.77;;;-4.00;99.90;;;-141.84;78.09;18718.56;5051904;28;20243;-61
2023/02/09 01:52:46;;;;;;;42.73;25.53;;;-4.00;99.90;;;-141.84;78.13;18720.59;5051582;28;20226;-60
2023/02/09 01:55:20;;;;;;;44.47;25.63;;;-4.00;99.90;;;-141.84;77.54;18712.47;5051397;28;20231;-61
2023/02/09 01:57:57;;;;;;;47.63;26.57;;;-4.00;99.90;;;-141.84;77.73;18702.28;5051644;28;20615;-61
2023/02/09 02:00:27;;;;;;;43.57;25.17;;;-4.00;99.90;;;-141.84;77.90;18712.47;5051461;28;20253;-61
2023/02/09 02:03:01;;;;;;;47.50;25.87;;;-4.00;99.90;;;-141.84;78.04;18728.72;5051603;28;20295;-61
2023/02/09 02:05:33;;;;;;;44.23;25.43;;;-4.10;99.90;;;-141.84;78.29;18696.19;5052103;28;20184;-60
2023/02/09 02:08:05;;;;;;;43.13;25.53;;;-4.10;99.90;;;-141.84;78.41;18702.28;5050701;28;20720;-62
2023/02/09 02:10:34;;;;;;;41.17;24.07;;;-4.10;99.90;;;-141.84;77.79;18710.44;5051044;28;20583;-61
2023/02/09 02:13:03;;;;;;;42.57;23.83;;;-4.10;99.90;;;-141.84;77.30;18714.50;5051522;28;20236;-59
2023/02/09 02:15:50;;;;;;;41.03;23.57;;;-4.10;99.90;;;-141.84;77.73;18698.22;5051148;28;20247;-62
2023/02/09 02:18:38;;;;;;;41.03;23.63;;;-4.10;99.90;;;-141.84;78.19;18702.28;5051556;28;20231;-62
2023/02/09 02:21:43;;;;;;;43.70;25.47;;;-4.20;99.90;;;-141.84;78.77;18677.91;5051190;28;20219;-61
2023/02/09 02:25:04;;;;;;;41.30;23.70;;;-4.30;99.90;;;-141.84;79.05;18694.16;5051580;28;20295;-63
2023/02/09 02:27:43;;;;;;;39.20;22.37;;;-4.30;99.90;;;-141.84;79.53;18706.38;5050948;28;20239;-61
2023/02/09 02:30:39;;;;;;;40.03;23.03;;;-4.40;99.90;;;-141.84;79.31;18710.44;5050918;28;20230;-61
2023/02/09 02:33:28;;;;;;;43.63;23.90;;;-4.40;99.90;;;-141.84;79.07;18710.44;5051091;28;20233;-61
2023/02/09 02:36:07;;;;;;;43.67;24.13;;;-4.30;99.90;;;-141.84;79.07;18726.69;5051126;28;20200;-61
2023/02/09 02:38:43;;;;;;;38.50;22.70;;;-4.40;99.90;;;-141.84;78.53;18706.38;5051649;28;20196;-61
2023/02/09 02:41:20;;;;;;;41.97;23.00;;;-4.30;99.90;;;-141.84;77.78;18714.50;5050784;28;20231;-62
2023/02/09 02:44:01;;;;;;;41.70;23.57;;;-4.20;99.90;;;-141.84;77.76;18669.78;5050644;28;20231;-61
2023/02/09 02:46:39;;;;;;;37.30;22.20;;;-4.30;99.90;;;-141.84;77.77;18692.13;5050505;28;20227;-62
2023/02/09 02:49:17;;;;;;;37.73;22.07;;;-4.30;99.90;;;-141.84;78.04;18700.25;5050800;28;20225;-61
2023/02/09 02:51:51;;;;;;;39.10;22.77;;;-4.30;99.90;;;-141.84;78.08;18742.94;5050378;28;20250;-61
2023/02/09 02:54:26;;;;;;;39.27;21.97;;;-4.30;99.90;;;-141.84;78.04;18706.38;5050843;28;20606;-62
2023/02/09 02:57:00;;;;;;;38.10;21.57;;;-4.30;99.90;;;-141.84;77.55;18700.25;5050323;28;20196;-62
2023/02/09 02:59:34;;;;;;;37.20;21.70;;;-4.30;99.90;;;-141.84;77.27;18710.44;5051286;28;20190;-60
2023/02/09 03:02:11;;;;;;;40.33;22.90;;;-4.30;99.90;;;-141.84;77.44;18708.41;5050311;28;20230;-62
2023/02/09 03:04:45;;;;;;;38.57;22.13;;;-4.30;99.90;;;-141.84;77.42;18724.66;5050434;28;20239;-62
2023/02/09 03:07:17;;;;;;;37.83;20.97;;;-4.30;99.90;;;-141.84;77.46;18724.66;5050315;28;20245;-61
2023/02/09 03:09:49;;;;;;;33.33;20.30;;;-4.30;99.90;;;-141.84;76.44;18714.50;5050324;28;20231;-61
2023/02/09 03:12:34;;;;;;;32.83;20.10;;;-4.20;99.90;;;-141.84;76.39;18704.31;5050160;28;20236;-62
2023/02/09 03:15:24;;;;;;;32.20;19.67;;;-4.20;99.90;;;-141.84;76.39;18704.31;5049968;28;20187;-61
2023/02/09 03:18:05;;;;;;;33.27;19.23;;;-4.30;99.90;;;-141.84;76.33;18700.25;5049900;28;20553;-60
2023/02/09 03:20:46;;;;;;;31.83;18.67;;;-4.20;99.90;;;-141.84;75.05;18692.13;5049895;28;20186;-61
2023/02/09 03:23:30;;;;;;;33.50;19.70;;;-4.10;99.90;;;-141.84;75.35;18710.44;5050225;28;20232;-60
2023/02/09 03:26:07;;;;;;;32.63;19.30;;;-4.20;99.90;;;-141.84;75.58;18696.19;5049605;28;20233;-61
2023/02/09 03:28:41;;;;;;;34.83;19.80;;;-4.20;99.90;;;-141.84;75.92;18690.09;5049536;28;20726;-62
2023/02/09 03:31:10;;;;;;;33.57;19.87;;;-4.20;99.90;;;-141.84;75.81;18698.22;5049739;28;20784;-60
2023/02/09 03:33:40;;;;;;;33.43;20.17;;;-4.20;99.90;;;-141.84;75.77;18677.91;5049451;28;20746;-60
2023/02/09 03:36:16;;;;;;;35.03;20.03;;;-4.20;99.90;;;-141.84;75.57;18704.31;5049683;28;20227;-61
2023/02/09 03:38:45;;;;;;;35.23;20.03;;;-4.00;99.90;;;-141.84;75.27;18714.50;5049693;28;20213;-61
2023/02/09 03:41:13;;;;;;;33.70;20.40;;;-4.20;99.90;;;-141.84;74.66;18690.09;5050016;28;20205;-61
2023/02/09 03:46:27;;;;;;;30.70;19.17;;;-4.00;99.90;;;-141.84;75.01;18714.50;5049452;28;20219;-63
2023/02/09 03:48:55;;;;;;;35.20;19.50;;;-4.10;99.90;;;-141.84;75.64;18708.41;5049409;28;20238;-61
2023/02/09 03:51:24;;;;;;;32.00;19.97;;;-4.20;99.90;;;-141.84;76.05;18722.63;5049353;28;20235;-61
2023/02/09 03:53:52;;;;;;;34.43;20.23;;;-4.30;99.90;;;-141.84;76.29;18740.91;5049440;28;20203;-63
2023/02/09 03:56:23;;;;;;;36.90;20.73;;;-4.30;99.90;;;-141.84;76.39;18686.03;5050141;28;20214;-61
2023/02/09 03:58:52;;;;;;;36.63;21.03;;;-4.30;99.90;;;-141.84;76.77;18734.81;5049257;28;20690;-62
2023/02/09 04:01:20;;;;;;;36.80;21.33;;;-4.40;99.90;;;-141.84;76.54;18712.47;5049145;28;20233;-61
2023/02/09 04:03:49;;;;;;;37.43;21.03;;;-4.40;99.90;;;-141.84;76.60;18718.56;5049206;28;20231;-61
2023/02/09 04:06:17;;;;;;;35.40;20.03;;;-4.40;99.90;;;-141.84;77.02;18720.59;5049126;28;20227;-60
2023/02/09 04:08:46;;;;;;;35.27;20.67;;;-4.50;99.90;;;-141.84;76.72;18714.50;5049249;28;20206;-61
2023/02/09 04:11:14;;;;;;;32.43;18.57;;;-4.40;99.90;;;-141.84;76.57;18710.44;5049610;28;20223;-60
2023/02/09 04:13:42;;;;;;;36.73;20.60;;;-4.40;99.90;;;-141.84;76.84;18716.53;5048963;28;20230;-61
2023/02/09 04:16:11;;;;;;;34.40;19.60;;;-4.40;99.90;;;-141.84;76.79;18710.44;5048787;28;20875;-61
2023/02/09 04:18:39;;;;;;;31.57;17.90;;;-4.40;99.90;;;-141.84;76.53;18710.44;5049163;28;20615;-62
2023/02/09 04:21:07;;;;;;;32.70;18.37;;;-4.40;99.90;;;-141.84;76.17;18694.16;5048845;28;20710;-61
2023/02/09 04:23:35;;;;;;;27.10;16.83;;;-4.40;99.90;;;-141.84;75.99;18690.09;5049610;28;20208;-61
2023/02/09 04:26:05;;;;;;;29.20;16.73;;;-4.30;99.90;;;-141.84;75.83;18708.41;5048571;28;20241;-60
2023/02/09 04:28:33;;;;;;;27.63;15.47;;;-4.30;99.90;;;-141.84;75.58;18696.19;5048843;28;20289;-61
2023/02/09 04:31:01;;;;;;;26.90;16.83;;;-4.30;99.90;;;-141.84;75.40;18708.41;5052395;28;20235;-61
2023/02/09 04:33:30;;;;;;;26.80;16.13;;;-4.30;99.90;;;-141.84;74.54;18669.78;5055591;28;20226;-62
2023/02/09 04:35:58;;;;;;;25.33;15.30;;;-4.30;99.90;;;-141.84;73.99;18698.22;5055619;28;20207;-62
2023/02/09 04:38:27;;;;;;;24.87;15.00;;;-4.20;99.90;;;-141.84;74.15;18718.56;5056028;28;20209;-60
2023/02/09 04:40:55;;;;;;;25.97;14.43;;;-4.20;99.90;;;-141.84;73.80;18724.66;5055274;28;20223;-61
2023/02/09 04:43:25;;;;;;;26.23;14.87;;;-4.10;99.90;;;-141.84;73.51;18706.38;5055513;28;20246;-62
2023/02/09 04:45:54;;;;;;;22.23;13.90;;;-4.10;99.90;;;-141.84;72.89;18738.88;5055450;28;20227;-61
2023/02/09 04:48:26;;;;;;;22.67;14.13;;;-4.00;99.90;;;-141.84;73.15;18716.53;5055518;28;20225;-61
2023/02/09 04:50:54;;;;;;;21.53;13.30;;;-4.00;99.90;;;-141.84;72.45;18730.75;5055417;28;20215;-60
2023/02/09 04:53:23;;;;;;;24.00;13.43;;;-4.00;99.90;;;-141.84;72.34;18753.09;5055884;28;20211;-61
2023/02/09 04:55:52;;;;;;;20.03;12.13;;;-4.00;99.90;;;-141.84;71.97;18740.91;5055137;28;20229;-61
2023/02/09 05:01:12;;;;;;;20.23;12.53;;;-3.90;99.90;;;-141.84;71.64;18728.72;5055138;28;20234;-61
2023/02/09 05:03:41;;;;;;;20.93;12.30;;;-3.90;99.90;;;-141.84;71.95;18734.81;5055289;28;20238;-61
2023/02/09 05:06:09;;;;;;;21.17;12.93;;;-3.90;99.90;;;-141.84;72.14;18738.88;5055398;28;20227;-62
2023/02/09 05:08:37;;;;;;;19.47;11.67;;;-3.90;99.90;;;-141.84;71.75;18763.25;5055904;28;20210;-63
2023/02/09 05:11:06;;;;;;;20.63;12.60;;;-3.90;99.90;;;-141.84;71.23;18769.34;5054989;28;20704;-62
2023/02/09 05:13:35;;;;;;;18.70;11.50;;;-3.90;99.90;;;-141.84;70.40;18728.72;5055130;28;20735;-61
2023/02/09 05:16:08;;;;;;;23.10;12.27;;;-3.80;99.90;;;-141.84;69.51;18761.22;5054900;28;20837;-61
2023/02/09 05:18:36;;;;;;;19.70;12.13;;;-3.70;99.90;;;-141.84;70.13;18763.25;5055236;28;20250;-63
2023/02/09 05:21:05;;;;;;;22.63;12.80;;;-3.80;99.90;;;-141.84;70.27;18755.13;5055412;28;20230;-60
2023/02/09 05:23:34;;;;;;;18.33;11.80;;;-3.70;99.90;;;-141.84;70.55;18728.72;5055833;28;20222;-61
2023/02/09 05:26:02;;;;;;;21.10;12.10;;;-3.80;99.90;;;-141.84;70.67;18718.56;5054987;28;20585;-62
2023/02/09 05:28:30;;;;;;;21.03;11.70;;;-3.80;99.90;;;-141.84;70.63;18728.72;5055124;28;20233;-61
2023/02/09 05:30:58;;;;;;;23.27;11.97;;;-3.80;99.90;;;-141.84;70.67;18757.16;5054999;28;20252;-63
2023/02/09 05:33:28;;;;;;;19.23;11.63;;;-3.80;99.90;;;-141.84;70.67;18753.09;5055184;28;20274;-61
2023/02/09 05:35:56;;;;;;;20.87;11.90;;;-3.90;99.90;;;-141.84;71.32;18755.13;5055220;28;20576;-61
2023/02/09 05:38:24;;;;;;;16.77;11.57;;;-4.00;99.90;;;-141.84;71.55;18742.94;5055725;28;20198;-61
2023/02/09 05:40:52;;;;;;;22.50;12.70;;;-4.00;99.90;;;-141.84;71.20;18728.72;5055008;28;20259;-61
2023/02/09 05:43:20;;;;;;;19.63;12.20;;;-4.00;99.90;;;-141.84;69.58;18742.94;5050907;28;20236;-62
2023/02/09 05:45:48;;;;;;;21.30;12.57;;;-3.80;99.90;;;-141.84;68.87;18767.31;5051639;28;20762;-62
2023/02/09 05:48:17;;;;;;;19.93;11.57;;;-3.70;99.90;;;-141.84;68.52;18779.50;5051727;28;20580;-60
2023/02/09 05:50:48;;;;;;;19.77;11.30;;;-3.60;99.90;;;-141.84;67.79;18753.09;5051717;28;20203;-61
2023/02/09 05:53:16;;;;;;;20.30;11.80;;;-3.50;99.90;;;-141.84;68.62;18757.16;5052181;28;20212;-61
2023/02/09 05:55:46;;;;;;;20.30;11.73;;;-3.70;99.90;;;-141.84;68.39;18765.28;5051171;28;20227;-62
2023/02/09 05:58:14;;;;;;;19.60;11.03;;;-3.60;99.90;;;-141.84;69.16;18730.75;5051692;28;20729;-62
2023/02/09 06:00:42;;;;;;;20.63;12.30;;;-3.70;99.90;;;-141.84;68.87;18769.34;5051257;28;20240;-63
2023/02/09 06:03:11;;;;;;;20.90;11.97;;;-3.70;99.90;;;-141.84;68.63;18777.47;5051606;28;20248;-61
2023/02/09 06:05:39;;;;;;;21.53;11.53;;;-3.80;99.90;;;-141.84;68.35;18783.56;5051805;28;20203;-63
2023/02/09 06:08:09;;;;;;;17.77;11.07;;;-3.70;99.90;;;-141.84;69.41;18759.19;5051370;28;20754;-60
2023/02/09 06:10:37;;;;;;;19.33;11.93;;;-3.80;99.90;;;-141.84;69.57;18795.75;5051099;28;20669;-60
2023/02/09 06:13:05;;;;;;;18.47;10.87;;;-3.90;99.90;;;-141.84;69.90;18767.31;5051229;28;20238;-63
2023/02/09 06:15:33;;;;;;;18.13;11.40;;;-4.00;99.90;;;-141.84;69.17;18749.03;5051086;28;20254;-61
2023/02/09 06:18:01;;;;;;;19.50;12.17;;;-3.90;99.90;;;-141.84;68.94;18771.38;5051358;28;20274;-60
2023/02/09 06:20:29;;;;;;;19.47;11.10;;;-3.90;99.90;;;-141.84;69.17;18775.44;5051698;28;20204;-60
2023/02/09 06:22:58;;;;;;;20.77;11.83;;;-3.90;99.90;;;-141.84;68.83;18763.25;5050960;28;20231;-61
2023/02/09 06:25:27;;;;;;;17.80;10.83;;;-3.90;99.90;;;-141.84;69.53;18740.91;5050558;28;20738;-61
2023/02/09 06:27:55;;;;;;;20.00;11.00;;;-3.90;99.90;;;-141.84;69.46;18724.66;5051074;28;20227;-62
2023/02/09 06:30:23;;;;;;;18.70;11.30;;;-3.90;99.90;;;-141.84;68.91;18744.97;5050934;28;20255;-63
2023/02/09 06:32:52;;;;;;;20.63;11.53;;;-3.90;99.90;;;-141.84;69.49;18787.63;5050839;28;20224;-61
2023/02/09 06:35:20;;;;;;;19.23;11.47;;;-3.90;99.90;;;-141.84;69.50;18763.25;5051175;28;20231;-60
2023/02/09 06:37:48;;;;;;;17.50;10.90;;;-4.00;99.90;;;-141.84;69.48;18763.25;5050732;28;20228;-61
2023/02/09 06:40:16;;;;;;;18.17;10.90;;;-3.90;99.90;;;-141.84;69.72;18765.28;5050572;28;20231;-62
2023/02/09 06:42:46;;;;;;;18.60;11.10;;;-4.00;99.90;;;-141.84;69.91;18740.91;5050541;28;20249;-60
2023/02/09 06:45:17;;;;;;;18.67;10.23;;;-4.00;99.90;;;-141.84;70.01;18749.03;5050629;28;20234;-62
2023/02/09 06:47:46;;;;;;;18.57;10.73;;;-4.00;99.90;;;-141.84;70.88;18724.66;5051021;28;20187;-60
2023/02/09 06:50:16;;;;;;;20.63;11.17;;;-4.10;99.90;;;-141.84;70.97;18724.66;5051079;28;20212;-60
2023/02/09 06:52:45;;;;;;;20.80;11.83;;;-4.10;99.90;;;-141.84;70.74;18749.03;5050674;28;20664;-60
2023/02/09 06:55:14;;;;;;;20.87;11.80;;;-4.10;99.90;;;-141.84;69.52;18769.34;5050271;28;20228;-61
2023/02/09 06:57:42;;;;;;;17.90;11.53;;;-4.00;99.90;;;-141.84;69.85;18724.66;5050246;28;20236;-61
2023/02/09 07:00:13;;;;;;;19.03;12.17;;;-4.00;99.90;;;-141.84;69.44;18781.53;5050538;28;20711;-61
2023/02/09 07:02:42;;;;;;;18.47;11.10;;;-3.90;99.90;;;-141.84;69.00;18765.28;5050570;28;20671;-62
2023/02/09 07:05:10;;;;;;;17.10;10.40;;;-3.90;99.90;;;-141.84;69.28;18753.09;5050841;28;20231;-62
2023/02/09 07:07:39;;;;;;;17.77;10.50;;;-3.90;99.90;;;-141.84;68.93;18736.84;5050148;28;20227;-63
2023/02/09 07:10:11;;;;;;;17.63;10.70;;;-3.80;99.90;;;-141.84;68.33;18783.56;5050161;28;20232;-61
2023/02/09 07:12:39;;;;;;;15.63;10.10;;;-3.70;99.90;;;-141.84;67.89;18785.59;5050069;28;20225;-62
2023/02/09 07:15:08;;;;;;;15.90;9.87;;;-3.60;99.90;;;-141.84;67.56;18785.59;5050126;28;20239;-62
2023/02/09 07:17:38;;;;;;;19.20;10.50;;;-3.60;99.90;;;-141.84;68.04;18767.31;5050461;28;20198;-60
2023/02/09 07:20:08;;;;;;;20.73;10.80;;;-3.50;99.90;;;-141.84;67.45;18787.63;5049572;28;20232;-62
2023/02/09 07:22:36;;;;;;;19.73;10.90;;;-3.40;99.90;;;-141.84;67.30;18749.03;5049434;28;20230;-62
2023/02/09 07:25:06;;;;;;;18.43;10.80;;;-3.40;99.90;;;-141.84;67.69;18789.66;5049835;28;20656;-62
2023/02/09 07:27:34;;;;;;;17.13;10.47;;;-3.40;99.90;;;-141.84;68.14;18753.09;5049437;28;20228;-62
2023/02/09 07:30:02;;;;;;;17.17;11.00;;;-3.30;99.90;;;-141.84;68.02;18793.72;5050046;28;20285;-60
2023/02/09 07:32:30;;;;;;;16.53;9.87;;;-3.40;99.90;;;-141.84;68.29;18791.69;5049743;28;20228;-61
2023/02/09 07:35:00;;;;;;;17.93;11.00;;;-3.30;99.90;;;-141.84;67.92;18781.53;5049602;28;20229;-61
2023/02/09 07:37:28;;;;;;;16.50;10.20;;;-3.30;99.90;;;-141.84;66.80;18781.53;5049551;28;20228;-61
2023/02/09 07:39:56;;;;;;;16.67;10.43;;;-3.20;99.90;;;-141.84;66.44;18805.91;5049411;28;20234;-62
2023/02/09 07:42:24;;;;;;;15.97;9.67;;;-3.10;99.90;;;-141.84;67.06;18761.22;5049498;28;20230;-59
2023/02/09 07:44:52;;;;;;;15.83;9.50;;;-3.00;99.90;;;-141.84;65.87;18799.81;5049166;28;20207;-62
2023/02/09 07:47:20;;;;;;;18.30;10.43;;;-2.90;99.90;;;-141.84;65.90;18797.78;5049778;28;20212;-61
2023/02/09 07:49:48;;;;;;;16.23;10.27;;;-2.80;99.90;;;-141.84;64.34;18828.28;5049033;28;20748;-61
2023/02/09 07:52:18;;;;;;;16.90;9.73;;;-2.70;99.90;;;-141.84;64.34;18812.00;5049358;28;20236;-61
2023/02/09 07:54:46;;;;;;;15.60;10.30;;;-2.60;99.90;;;-141.84;64.75;18814.03;5049332;28;20227;-62
2023/02/09 07:57:14;;;;;;;16.90;9.53;;;-2.50;99.90;;;-141.84;64.27;18783.56;5048983;28;20236;-60
2023/02/09 07:59:42;;;;;;;19.47;10.13;;;-2.40;99.90;;;-141.84;64.10;18781.53;5049699;28;20205;-61
2023/02/09 08:02:27;;;;;;;16.50;9.80;;;-2.30;99.90;;;-141.84;63.26;18850.63;5049575;28;20227;-61
2023/02/09 08:05:00;;;;;;;16.57;10.13;;;-2.30;99.90;;;-141.84;62.86;18820.16;5048574;28;20227;-62
2023/02/09 08:07:30;;;;;;;15.23;9.30;;;-2.20;99.90;;;-141.84;62.15;18840.47;5048993;28;20229;-60
2023/02/09 08:09:58;;;;;;;16.60;9.97;;;-2.10;99.90;;;-141.84;62.82;18832.34;5049593;28;20611;-60
2023/02/09 08:15:21;;;;;;;15.00;8.97;;;-1.90;99.90;;;-141.84;61.73;18864.84;5049094;28;20229;-60
2023/02/09 08:17:51;;;;;;;16.20;9.47;;;-1.80;99.90;;;-141.84;61.64;18840.47;5048716;28;20192;-61
2023/02/09 08:20:25;;;;;;;15.03;8.80;;;-1.70;99.90;;;-141.84;60.94;18858.75;5049272;28;20198;-62
2023/02/09 08:23:03;;;;;;;15.43;9.87;;;-1.60;99.90;;;-141.84;60.68;18842.50;5048572;28;20601;-61
2023/02/09 08:25:31;;;;;;;14.30;9.17;;;-1.60;99.90;;;-141.84;61.15;18840.47;5049233;28;20232;-61
2023/02/09 08:28:00;;;;;;;15.00;8.90;;;-1.60;99.90;;;-141.84;60.35;18826.25;5048654;28;20260;-62
2023/02/09 08:30:29;;;;;;;12.80;8.83;;;-1.50;99.90;;;-141.84;60.11;18848.59;5048828;28;20308;-61
2023/02/09 08:32:57;;;;;;;14.30;9.73;;;-1.30;99.90;;;-141.84;60.12;18891.25;5049029;28;20616;-62
2023/02/09 08:35:26;;;;;;;13.20;8.67;;;-1.30;99.90;;;-141.84;59.70;18875.00;5049669;28;20227;-61
2023/02/09 08:38:02;;;;;;;17.23;9.63;;;-1.20;99.90;;;-141.84;59.02;18875.00;5049014;28;20232;-62
2023/02/09 08:40:35;;;;;;;15.27;8.83;;;-1.10;99.90;;;-141.84;58.83;18899.38;5048903;28;20252;-61
2023/02/09 08:43:03;;;;;;;15.77;8.90;;;-0.90;99.90;;;-141.84;58.40;18907.50;5048511;28;20260;-61
2023/02/09 08:45:31;;;;;;;14.17;9.70;;;-0.80;99.90;;;-141.84;58.26;18895.31;5048875;28;20585;-61
2023/02/09 08:48:00;;;;;;;15.73;9.53;;;-0.70;99.90;;;-141.84;58.15;18903.44;5048654;28;20240;-61
2023/02/09 08:50:28;;;;;;;15.57;8.77;;;-0.80;99.90;;;-141.84;58.92;18885.16;5049113;28;20263;-61
2023/02/09 08:52:56;;;;;;;14.03;8.83;;;-0.70;99.90;;;-141.84;57.90;18919.69;5048232;28;20224;-61
2023/02/09 08:55:26;;;;;;;12.60;8.87;;;-0.60;99.90;;;-141.84;56.54;18960.34;5041283;28;20751;-61
2023/02/09 08:57:54;;;;;;;13.17;8.63;;;-0.30;99.90;;;-141.84;56.08;18952.22;5031606;28;20262;-61
2023/02/09 09:00:22;;;;;;;11.77;8.30;;;-0.10;99.90;;;-141.84;55.37;18944.09;5028830;28;20290;-62
2023/02/09 09:02:50;;;;;;;14.00;8.70;;;0.10;99.90;;;-141.84;56.50;18931.91;5028987;28;20211;-61
2023/02/09 09:05:18;;;;;;;13.23;8.83;;;-0.20;99.90;;;-141.84;57.76;18905.47;5029652;28;20706;-61
2023/02/09 09:07:47;;;;;;;13.33;8.70;;;-0.30;99.90;;;-141.84;57.10;18905.47;5028741;28;20233;-61
2023/02/09 09:10:15;;;;;;;15.37;8.67;;;-0.30;99.90;;;-141.84;56.93;18919.69;5028689;28;20233;-62
2023/02/09 09:12:44;;;;;;;13.90;8.70;;;-0.30;99.90;;;-141.84;56.94;18966.44;5028531;28;20595;-62
2023/02/09 09:15:12;;;;;;;12.87;9.23;;;-0.20;99.90;;;-141.84;57.33;18933.94;5028563;28;20233;-61
2023/02/09 09:17:40;;;;;;;13.37;8.63;;;-0.20;99.90;;;-141.84;57.29;18938.00;5030446;28;20200;-61
2023/02/09 09:20:10;;;;;;;14.37;8.73;;;-0.10;99.90;;;-141.84;56.49;18944.09;5032271;28;20717;-61
2023/02/09 09:22:38;;;;;;;14.67;8.93;;;0.00;99.90;;;-141.84;55.87;18952.22;5032037;28;20231;-61
2023/02/09 09:25:07;;;;;;;13.90;8.63;;;0.00;99.90;;;-141.84;55.73;18946.13;5032228;28;20290;-62
2023/02/09 09:27:35;;;;;;;13.03;8.13;;;0.10;99.90;;;-141.84;56.11;19005.03;5032054;28;20234;-63
2023/02/09 09:30:06;;;;;;;14.90;8.77;;;0.10;99.90;;;-141.84;56.01;18980.66;5032060;28;20202;-61
2023/02/09 09:32:34;;;;;;;14.77;8.83;;;0.20;99.90;;;-141.84;56.24;18972.53;5032684;28;20716;-61
2023/02/09 09:35:02;;;;;;;14.83;9.13;;;0.30;99.90;;;-141.84;55.49;18968.47;5031827;28;20284;-62
2023/02/09 09:37:30;;;;;;;12.60;8.43;;;0.40;99.90;;;-141.84;55.36;18960.34;5031289;28;20424;-61
2023/02/09 09:39:59;;;;;;;14.67;8.67;;;0.40;99.90;;;-141.84;55.73;18980.66;5031936;28;20326;-62
2023/02/09 09:42:35;;;;;;;16.10;9.67;;;0.40;99.90;;;-141.84;54.83;18962.38;5032004;28;20260;-61
2023/02/09 09:45:12;;;;;;;13.60;8.53;;;0.50;99.90;;;-141.84;54.64;18976.59;5031669;28;20186;-61
2023/02/09 09:47:42;;;;;;;15.33;9.10;;;0.60;99.90;;;-141.84;54.98;18980.66;5032397;28;20185;-61
2023/02/09 09:50:19;;;;;;;15.27;8.27;;;0.70;99.90;;;-141.84;54.84;19000.97;5031946;28;20690;-60
2023/02/09 09:52:53;;;;;;;12.43;8.67;;;0.80;99.90;;;-141.84;54.07;18990.81;5031871;28;20238;-62
2023/02/09 09:55:26;;;;;;;11.83;8.20;;;1.00;99.90;;;-141.84;52.62;19017.25;5031380;28;20261;-62
2023/02/09 09:57:56;;;;;;;12.57;7.90;;;1.10;99.90;;;-141.84;52.47;19049.75;5031801;28;20229;-61
2023/02/09 10:00:30;;;;;;;13.53;8.27;;;1.20;99.90;;;-141.84;52.86;19021.31;5031648;28;20290;-61
2023/02/09 10:02:58;;;;;;;11.63;8.33;;;1.10;99.90;;;-141.84;52.15;19045.69;5032071;28;20248;-62
2023/02/09 10:05:29;;;;;;;12.40;8.00;;;1.20;99.90;;;-141.84;51.88;19045.69;5032146;28;20198;-61
2023/02/09 10:08:07;;;;;;;12.43;7.90;;;1.20;99.90;;;-141.84;51.73;19009.09;5031484;28;20234;-61
2023/02/09 10:10:45;;;;;;;12.23;7.93;;;1.30;99.90;;;-141.84;51.90;19057.88;5031182;28;20291;-61
2023/02/09 10:13:21;;;;;;;12.47;7.70;;;1.30;99.90;;;-141.84;51.80;19029.44;5031567;28;20279;-62
2023/02/09 10:15:53;;;;;;;12.50;7.47;;;1.30;99.90;;;-141.84;51.25;19080.22;5030874;28;20237;-61
2023/02/09 10:18:24;;;;;;;13.67;7.77;;;1.50;99.90;;;-141.84;50.81;19035.53;5031380;28;20291;-61
2023/02/09 10:20:55;;;;;;;12.63;7.87;;;1.60;99.90;;;-141.84;51.35;19057.88;5031882;28;20333;-62
2023/02/09 10:23:26;;;;;;;16.07;7.70;;;1.60;99.90;;;-141.84;51.01;19086.31;5031879;28;20190;-61